Time;durP1;ratioP1;P1;durP2;ratioP2;P2;SDS_P1;SDS_P2;PMS_P1;PMS_P2;Temp;Humidity;BMP_temperature;BMP_pressure;BME280_temperature;BME280_humidity;BME280_pressure;Samples;Min_cycle;Max_cycle;Signal;HPM_P1;HPM_P2
2022/04/08 00:01:28;;;;;;;6.38;3.28;;;;;;;;;;4953783;28;20110;-35
2022/04/08 00:03:54;;;;;;;6.60;4.57;;;;;;;;;;4953709;28;20434;-35
2022/04/08 00:06:20;;;;;;;10.52;5.10;;;;;;;;;;4953968;28;20423;-36
2022/04/08 00:08:46;;;;;;;5.43;3.38;;;;;;;;;;4953911;28;20123;-35
2022/04/08 00:11:12;;;;;;;8.60;4.30;;;;;;;;;;4953905;28;20485;-35
2022/04/08 00:13:37;;;;;;;6.97;4.72;;;;;;;;;;4953642;28;20384;-35
2022/04/08 00:16:03;;;;;;;8.55;4.50;;;;;;;;;;4953529;28;20462;-35
2022/04/08 00:18:29;;;;;;;6.50;4.07;;;;;;;;;;4953759;28;20494;-36
2022/04/08 00:20:55;;;;;;;5.75;3.53;;;;;;;;;;4953747;28;20023;-36
2022/04/08 00:23:20;;;;;;;7.35;3.78;;;;;;;;;;4953571;28;20441;-35
2022/04/08 00:25:46;;;;;;;10.82;4.03;;;;;;;;;;4953356;28;20023;-35
2022/04/08 00:28:11;;;;;;;11.25;4.18;;;;;;;;;;4953353;28;20035;-36
2022/04/08 00:30:37;;;;;;;7.38;4.93;;;;;;;;;;4953248;28;20082;-35
2022/04/08 00:33:02;;;;;;;7.65;4.10;;;;;;;;;;4953634;28;20039;-35
2022/04/08 00:35:27;;;;;;;7.07;4.05;;;;;;;;;;4953483;28;20382;-35
2022/04/08 00:37:53;;;;;;;5.57;3.45;;;;;;;;;;4953586;28;20027;-35
2022/04/08 00:40:18;;;;;;;5.65;3.13;;;;;;;;;;4953267;28;20027;-35
2022/04/08 00:42:44;;;;;;;4.22;3.00;;;;;;;;;;4953066;28;20059;-36
2022/04/08 00:45:10;;;;;;;7.65;3.60;;;;;;;;;;4953282;28;20078;-35
2022/04/08 00:47:37;;;;;;;4.68;2.85;;;;;;;;;;4953103;28;20042;-35
2022/04/08 00:50:06;;;;;;;4.93;2.90;;;;;;;;;;4953229;28;20035;-35
2022/04/08 00:52:33;;;;;;;5.40;3.35;;;;;;;;;;4953005;28;20055;-35
2022/04/08 00:54:58;;;;;;;4.70;3.15;;;;;;;;;;4953101;28;20591;-35
2022/04/08 00:57:24;;;;;;;3.65;2.70;;;;;;;;;;4953162;28;20043;-35
2022/04/08 00:59:49;;;;;;;6.88;3.35;;;;;;;;;;4953127;28;20023;-35
2022/04/08 01:02:15;;;;;;;5.72;3.50;;;;;;;;;;4953331;28;20035;-35
2022/04/08 01:04:40;;;;;;;8.50;3.70;;;;;;;;;;4953250;28;20058;-35
2022/04/08 01:07:06;;;;;;;4.40;2.88;;;;;;;;;;4953091;28;20501;-35
2022/04/08 01:09:32;;;;;;;3.58;2.28;;;;;;;;;;4953238;29;20023;-35
2022/04/08 01:11:57;;;;;;;2.60;2.20;;;;;;;;;;4953273;28;20522;-35
2022/04/08 01:14:23;;;;;;;3.53;2.15;;;;;;;;;;4953321;28;20536;-36
2022/04/08 01:16:48;;;;;;;4.32;2.17;;;;;;;;;;4952906;28;20034;-35
2022/04/08 01:19:14;;;;;;;9.45;2.78;;;;;;;;;;4953214;28;20371;-35
2022/04/08 01:21:39;;;;;;;4.97;2.80;;;;;;;;;;4953173;28;20540;-36
2022/04/08 01:24:08;;;;;;;10.95;3.00;;;;;;;;;;4951562;28;20023;-35
2022/04/08 01:26:34;;;;;;;3.15;1.73;;;;;;;;;;4954079;28;20063;-35
2022/04/08 01:28:59;;;;;;;2.70;1.77;;;;;;;;;;4956574;28;20110;-35
2022/04/08 01:31:29;;;;;;;4.78;1.63;;;;;;;;;;4956674;28;20043;-36
2022/04/08 01:33:54;;;;;;;5.70;2.03;;;;;;;;;;4956452;28;20081;-35
2022/04/08 01:36:20;;;;;;;3.10;2.38;;;;;;;;;;4956518;28;20034;-35
2022/04/08 01:38:45;;;;;;;3.80;2.17;;;;;;;;;;4956324;28;20098;-35
2022/04/08 01:41:11;;;;;;;9.93;2.10;;;;;;;;;;4956400;28;20044;-35
2022/04/08 01:43:36;;;;;;;4.00;2.25;;;;;;;;;;4956062;28;20560;-35
2022/04/08 01:46:02;;;;;;;4.22;2.40;;;;;;;;;;4971097;28;20046;-36
2022/04/08 01:48:27;;;;;;;3.97;2.25;;;;;;;;;;4956279;28;20019;-35
2022/04/08 01:50:53;;;;;;;11.88;2.47;;;;;;;;;;4956135;28;20094;-36
2022/04/08 01:53:18;;;;;;;3.78;2.22;;;;;;;;;;4956166;28;20023;-35
2022/04/08 01:55:44;;;;;;;9.35;3.10;;;;;;;;;;4956214;28;20035;-36
2022/04/08 01:58:12;;;;;;;3.35;1.80;;;;;;;;;;4956310;28;20023;-35
2022/04/08 02:00:38;;;;;;;5.97;2.22;;;;;;;;;;4956199;28;20043;-35
2022/04/08 02:03:04;;;;;;;8.18;2.28;;;;;;;;;;4956018;28;20355;-35
2022/04/08 02:05:29;;;;;;;5.43;2.35;;;;;;;;;;4956110;28;20110;-35
2022/04/08 02:07:54;;;;;;;5.22;2.28;;;;;;;;;;4955797;29;20015;-35
2022/04/08 02:10:20;;;;;;;6.03;2.38;;;;;;;;;;4955833;28;20050;-35
2022/04/08 02:12:46;;;;;;;6.13;2.05;;;;;;;;;;4955896;28;20031;-35
2022/04/08 02:15:11;;;;;;;6.57;2.20;;;;;;;;;;4955716;29;20035;-35
2022/04/08 02:17:37;;;;;;;2.65;2.38;;;;;;;;;;4955656;28;20046;-35
2022/04/08 02:20:04;;;;;;;5.05;1.83;;;;;;;;;;4955912;28;20386;-36
2022/04/08 02:22:30;;;;;;;6.50;2.58;;;;;;;;;;4955562;28;20058;-35
2022/04/08 02:24:56;;;;;;;7.35;2.35;;;;;;;;;;4955548;28;20062;-35
2022/04/08 02:27:23;;;;;;;5.68;1.88;;;;;;;;;;4955816;28;20081;-35
2022/04/08 02:29:49;;;;;;;2.35;1.67;;;;;;;;;;4955672;28;20054;-35
2022/04/08 02:32:14;;;;;;;1.90;1.73;;;;;;;;;;4955399;28;20035;-35
2022/04/08 02:34:39;;;;;;;2.75;2.28;;;;;;;;;;4955314;28;20389;-35
2022/04/08 02:37:05;;;;;;;3.67;1.88;;;;;;;;;;4955311;28;20090;-36
2022/04/08 02:39:30;;;;;;;7.68;2.40;;;;;;;;;;4955511;28;20042;-35
2022/04/08 02:41:57;;;;;;;3.33;2.08;;;;;;;;;;4955253;28;20062;-35
2022/04/08 02:44:22;;;;;;;4.22;2.25;;;;;;;;;;4955056;28;20620;-35
2022/04/08 02:46:48;;;;;;;5.13;1.73;;;;;;;;;;4970096;28;20105;-35
2022/04/08 02:49:13;;;;;;;3.83;2.13;;;;;;;;;;4955403;28;20029;-35
2022/04/08 02:51:38;;;;;;;5.30;2.08;;;;;;;;;;4954956;28;20394;-35
2022/04/08 02:54:04;;;;;;;3.92;2.45;;;;;;;;;;4955044;28;20031;-35
2022/04/08 02:56:29;;;;;;;5.18;1.92;;;;;;;;;;4954943;28;20027;-35
2022/04/08 02:58:57;;;;;;;1.77;1.27;;;;;;;;;;4954992;28;20078;-35
2022/04/08 03:01:22;;;;;;;4.35;1.75;;;;;;;;;;4954900;29;20556;-35
2022/04/08 03:03:47;;;;;;;3.75;1.70;;;;;;;;;;4954689;28;20035;-35
2022/04/08 03:06:13;;;;;;;5.63;1.92;;;;;;;;;;4955111;28;20031;-36
2022/04/08 03:08:38;;;;;;;8.63;2.95;;;;;;;;;;4954732;28;20485;-36
2022/04/08 03:11:04;;;;;;;6.63;1.73;;;;;;;;;;4954924;28;20494;-36
2022/04/08 03:13:29;;;;;;;7.90;3.95;;;;;;;;;;4954641;28;20027;-35
2022/04/08 03:15:54;;;;;;;6.05;2.10;;;;;;;;;;4954676;28;20070;-35
2022/04/08 03:18:20;;;;;;;5.70;2.20;;;;;;;;;;4954868;28;20039;-35
2022/04/08 03:20:45;;;;;;;2.83;1.92;;;;;;;;;;4954537;28;20465;-35
2022/04/08 03:23:11;;;;;;;10.57;1.60;;;;;;;;;;4954524;28;20047;-36
2022/04/08 03:25:36;;;;;;;3.53;2.03;;;;;;;;;;4954355;28;20059;-36
2022/04/08 03:28:02;;;;;;;3.70;1.92;;;;;;;;;;4954679;28;20038;-35
2022/04/08 03:30:27;;;;;;;6.95;2.20;;;;;;;;;;4954711;28;20027;-35
2022/04/08 03:32:56;;;;;;;3.15;1.85;;;;;;;;;;4954394;28;20048;-35
2022/04/08 03:35:21;;;;;;;3.80;1.63;;;;;;;;;;4954594;28;20019;-35
2022/04/08 03:37:47;;;;;;;2.42;1.70;;;;;;;;;;4954219;28;20038;-36
2022/04/08 03:40:12;;;;;;;3.80;2.10;;;;;;;;;;4954186;28;20020;-35
2022/04/08 03:42:38;;;;;;;5.40;1.83;;;;;;;;;;4953946;28;20402;-36
2022/04/08 03:45:04;;;;;;;7.18;1.80;;;;;;;;;;4954356;28;20042;-35
2022/04/08 03:47:30;;;;;;;4.10;1.85;;;;;;;;;;4953995;29;20047;-35
2022/04/08 03:49:57;;;;;;;2.10;1.60;;;;;;;;;;4953629;28;20031;-35
2022/04/08 03:52:23;;;;;;;2.17;1.63;;;;;;;;;;4954172;28;20051;-35
2022/04/08 03:54:48;;;;;;;2.05;1.75;;;;;;;;;;4954096;28;20023;-35
2022/04/08 03:57:13;;;;;;;6.22;1.83;;;;;;;;;;4953867;28;20406;-35
2022/04/08 03:59:39;;;;;;;2.35;1.48;;;;;;;;;;4953778;28;20031;-36
2022/04/08 04:02:05;;;;;;;4.60;2.05;;;;;;;;;;4953633;28;20045;-35
2022/04/08 04:04:31;;;;;;;12.35;2.00;;;;;;;;;;4954001;28;20027;-35
2022/04/08 04:06:57;;;;;;;8.07;2.30;;;;;;;;;;4953745;28;20034;-35
2022/04/08 04:09:22;;;;;;;4.43;1.75;;;;;;;;;;4953743;28;20019;-35
2022/04/08 04:11:48;;;;;;;5.72;1.73;;;;;;;;;;4968475;28;20071;-35
2022/04/08 04:14:13;;;;;;;3.75;1.67;;;;;;;;;;4952358;28;20102;-35
2022/04/08 04:16:38;;;;;;;1.75;1.35;;;;;;;;;;4953816;28;20042;-36
2022/04/08 04:19:04;;;;;;;2.33;1.98;;;;;;;;;;4953860;28;20023;-38
2022/04/08 04:21:30;;;;;;;1.95;1.40;;;;;;;;;;4953904;28;20557;-35
2022/04/08 04:23:55;;;;;;;15.82;2.15;;;;;;;;;;4953627;28;20019;-36
2022/04/08 04:26:21;;;;;;;5.13;2.15;;;;;;;;;;4953803;28;20046;-36
2022/04/08 04:28:46;;;;;;;1.90;1.45;;;;;;;;;;4953295;28;20023;-35
2022/04/08 04:31:11;;;;;;;1.13;0.82;;;;;;;;;;4953382;28;20046;-35
2022/04/08 04:33:37;;;;;;;6.30;2.20;;;;;;;;;;4953364;28;20363;-35
2022/04/08 04:36:02;;;;;;;3.85;1.60;;;;;;;;;;4953379;28;20109;-35
2022/04/08 04:38:28;;;;;;;3.75;1.65;;;;;;;;;;4953450;28;20071;-35
2022/04/08 04:40:53;;;;;;;3.67;1.20;;;;;;;;;;4953486;28;20035;-35
2022/04/08 04:43:18;;;;;;;3.33;1.05;;;;;;;;;;4953096;28;20055;-35
2022/04/08 04:45:44;;;;;;;2.53;1.70;;;;;;;;;;4953274;29;20114;-35
2022/04/08 04:48:11;;;;;;;7.47;1.60;;;;;;;;;;4953298;28;20058;-35
2022/04/08 04:50:39;;;;;;;2.17;1.75;;;;;;;;;;4953017;28;20027;-35
2022/04/08 04:53:05;;;;;;;2.75;1.40;;;;;;;;;;4953134;28;20031;-35
2022/04/08 04:55:30;;;;;;;3.13;1.30;;;;;;;;;;4953180;29;20066;-35
2022/04/08 04:57:56;;;;;;;5.25;1.20;;;;;;;;;;4953003;28;20454;-35
2022/04/08 05:00:22;;;;;;;3.97;1.85;;;;;;;;;;4952948;28;20038;-35
2022/04/08 05:02:47;;;;;;;6.00;1.75;;;;;;;;;;4956704;28;20019;-35
2022/04/08 05:05:13;;;;;;;4.07;2.08;;;;;;;;;;4957248;28;20019;-35
2022/04/08 05:07:39;;;;;;;2.55;1.48;;;;;;;;;;4956868;28;20463;-35
2022/04/08 05:10:06;;;;;;;11.00;1.70;;;;;;;;;;4957252;28;20031;-35
2022/04/08 05:12:31;;;;;;;5.18;2.83;;;;;;;;;;4956768;28;20063;-34
2022/04/08 05:14:57;;;;;;;3.38;1.45;;;;;;;;;;4956817;28;20062;-35
2022/04/08 05:17:22;;;;;;;4.47;1.88;;;;;;;;;;4956829;28;20030;-34
2022/04/08 05:19:48;;;;;;;5.22;1.60;;;;;;;;;;4956697;28;20027;-35
2022/04/08 05:22:14;;;;;;;2.03;1.70;;;;;;;;;;4957033;28;20382;-35
2022/04/08 05:24:40;;;;;;;15.05;2.13;;;;;;;;;;4956882;28;20493;-34
2022/04/08 05:27:06;;;;;;;3.63;1.63;;;;;;;;;;4971391;28;20369;-35
2022/04/08 05:29:34;;;;;;;7.50;1.15;;;;;;;;;;4956681;28;20027;-35
2022/04/08 05:32:00;;;;;;;5.50;1.83;;;;;;;;;;4956583;28;20039;-34
2022/04/08 05:34:27;;;;;;;5.80;1.67;;;;;;;;;;4956754;28;20035;-35
2022/04/08 05:36:52;;;;;;;8.18;2.28;;;;;;;;;;4956676;28;20035;-35
2022/04/08 05:39:18;;;;;;;3.47;1.73;;;;;;;;;;4956389;28;20521;-35
2022/04/08 05:41:43;;;;;;;5.43;1.60;;;;;;;;;;4956603;28;20389;-35
2022/04/08 05:44:09;;;;;;;2.35;1.40;;;;;;;;;;4956200;28;20043;-35
2022/04/08 05:46:35;;;;;;;2.78;1.60;;;;;;;;;;4956433;28;20069;-36
2022/04/08 05:49:00;;;;;;;2.42;1.50;;;;;;;;;;4956573;28;20042;-35
2022/04/08 05:51:25;;;;;;;7.30;1.80;;;;;;;;;;4956088;28;20122;-35
2022/04/08 05:53:51;;;;;;;7.93;1.80;;;;;;;;;;4956108;28;20032;-35
2022/04/08 05:56:16;;;;;;;4.63;2.53;;;;;;;;;;4956410;28;20488;-35
2022/04/08 05:58:42;;;;;;;5.07;1.70;;;;;;;;;;4956027;28;20039;-35
2022/04/08 06:01:07;;;;;;;4.32;1.58;;;;;;;;;;4956006;28;20023;-35
2022/04/08 06:03:32;;;;;;;8.77;1.33;;;;;;;;;;4955996;28;20031;-35
2022/04/08 06:05:58;;;;;;;4.47;2.38;;;;;;;;;;4956037;28;20102;-35
2022/04/08 06:08:24;;;;;;;4.38;1.73;;;;;;;;;;4955885;28;20110;-34
2022/04/08 06:10:49;;;;;;;6.40;1.50;;;;;;;;;;4955936;28;20031;-34
2022/04/08 06:13:16;;;;;;;4.10;1.70;;;;;;;;;;4955638;28;20488;-35
2022/04/08 06:15:42;;;;;;;4.38;1.67;;;;;;;;;;4955705;28;20097;-35
2022/04/08 06:18:09;;;;;;;9.07;1.83;;;;;;;;;;4955728;28;20031;-35
2022/04/08 06:20:35;;;;;;;3.47;1.70;;;;;;;;;;4955602;28;20643;-35
2022/04/08 06:23:00;;;;;;;7.57;1.48;;;;;;;;;;4955822;28;20063;-35
2022/04/08 06:25:25;;;;;;;6.90;1.80;;;;;;;;;;4955575;28;20019;-35
2022/04/08 06:27:56;;;;;;;2.13;1.33;;;;;;;;;;4955500;28;20031;-35
2022/04/08 06:30:22;;;;;;;5.07;1.38;;;;;;;;;;4955449;28;20248;-34
2022/04/08 06:32:47;;;;;;;4.68;1.27;;;;;;;;;;4955332;28;20035;-35
2022/04/08 06:35:13;;;;;;;12.45;1.95;;;;;;;;;;4955640;28;20529;-35
2022/04/08 06:37:38;;;;;;;5.53;1.63;;;;;;;;;;4955196;28;20034;-35
2022/04/08 06:40:08;;;;;;;4.03;1.40;;;;;;;;;;4955334;28;20030;-35
2022/04/08 06:42:34;;;;;;;4.25;1.80;;;;;;;;;;4955399;28;20031;-35
2022/04/08 06:45:00;;;;;;;6.25;1.70;;;;;;;;;;4955253;28;20042;-35
2022/04/08 06:47:25;;;;;;;4.57;1.58;;;;;;;;;;4955261;29;20031;-35
2022/04/08 06:49:50;;;;;;;2.58;1.17;;;;;;;;;;4955652;28;20114;-35
2022/04/08 06:52:16;;;;;;;4.63;1.60;;;;;;;;;;4955011;28;20031;-35
2022/04/08 06:54:41;;;;;;;3.58;1.40;;;;;;;;;;4955248;28;20039;-35
2022/04/08 06:57:07;;;;;;;8.45;1.85;;;;;;;;;;4955058;29;20397;-34
2022/04/08 06:59:33;;;;;;;4.10;1.63;;;;;;;;;;4954946;28;20035;-35
2022/04/08 07:01:58;;;;;;;8.30;2.00;;;;;;;;;;4955109;28;20542;-35
2022/04/08 07:04:25;;;;;;;2.60;1.65;;;;;;;;;;4955166;28;20390;-35
2022/04/08 07:06:51;;;;;;;3.33;1.45;;;;;;;;;;4954776;28;20019;-35
2022/04/08 07:09:16;;;;;;;5.28;2.50;;;;;;;;;;4969652;28;20035;-35
2022/04/08 07:11:42;;;;;;;7.45;1.63;;;;;;;;;;4954669;28;20043;-35
2022/04/08 07:14:07;;;;;;;8.57;1.65;;;;;;;;;;4954756;28;20050;-35
2022/04/08 07:16:33;;;;;;;4.18;1.60;;;;;;;;;;4954926;28;20035;-35
2022/04/08 07:18:58;;;;;;;5.88;2.15;;;;;;;;;;4954762;28;20637;-35
2022/04/08 07:21:23;;;;;;;6.90;1.83;;;;;;;;;;4954629;28;20401;-34
2022/04/08 07:23:49;;;;;;;7.93;2.08;;;;;;;;;;4953672;28;20175;-35
2022/04/08 07:26:14;;;;;;;8.20;1.60;;;;;;;;;;4954430;28;20589;-35
2022/04/08 07:28:40;;;;;;;5.20;1.80;;;;;;;;;;4954621;29;20054;-35
2022/04/08 07:31:05;;;;;;;2.30;1.85;;;;;;;;;;4954333;29;20031;-35
2022/04/08 07:33:31;;;;;;;10.13;1.73;;;;;;;;;;4954349;28;20077;-35
2022/04/08 07:35:58;;;;;;;3.60;1.95;;;;;;;;;;4954275;28;20042;-35
2022/04/08 07:38:24;;;;;;;3.92;1.48;;;;;;;;;;4954336;28;20434;-36
2022/04/08 07:40:50;;;;;;;4.22;1.55;;;;;;;;;;4954134;28;20023;-35
2022/04/08 07:43:16;;;;;;;5.22;1.40;;;;;;;;;;4953961;28;20106;-35
2022/04/08 07:45:42;;;;;;;7.40;1.70;;;;;;;;;;4954151;28;20031;-35
2022/04/08 07:48:07;;;;;;;9.05;2.58;;;;;;;;;;4954006;28;20358;-35
2022/04/08 07:50:33;;;;;;;7.35;2.38;;;;;;;;;;4954284;28;20130;-35
2022/04/08 07:52:58;;;;;;;7.47;2.13;;;;;;;;;;4954106;28;20438;-35
2022/04/08 07:55:26;;;;;;;4.32;1.50;;;;;;;;;;4953915;29;20022;-35
2022/04/08 07:57:52;;;;;;;5.50;1.48;;;;;;;;;;4954200;28;20031;-35
2022/04/08 08:00:21;;;;;;;13.80;1.80;;;;;;;;;;4954177;28;20023;-35
2022/04/08 08:02:48;;;;;;;7.28;1.90;;;;;;;;;;4953709;28;20031;-35
2022/04/08 08:05:13;;;;;;;3.03;1.30;;;;;;;;;;4968651;28;20536;-35
2022/04/08 08:07:49;;;;;;;4.82;1.58;;;;;;;;;;4953695;28;20039;-35
2022/04/08 08:10:15;;;;;;;2.88;1.30;;;;;;;;;;4953943;28;20038;-35
2022/04/08 08:12:40;;;;;;;7.93;1.92;;;;;;;;;;4953592;28;20035;-35
2022/04/08 08:15:06;;;;;;;5.10;1.63;;;;;;;;;;4953585;28;20089;-34
2022/04/08 08:17:31;;;;;;;2.15;1.35;;;;;;;;;;4952346;28;20035;-35
2022/04/08 08:19:57;;;;;;;6.68;1.80;;;;;;;;;;4953809;28;20042;-35
2022/04/08 08:22:23;;;;;;;3.00;1.42;;;;;;;;;;4968484;28;20027;-35
2022/04/08 08:24:48;;;;;;;2.92;1.48;;;;;;;;;;4953426;28;20114;-35
2022/04/08 08:27:14;;;;;;;3.85;1.48;;;;;;;;;;4953452;28;20533;-35
2022/04/08 08:29:39;;;;;;;12.98;2.35;;;;;;;;;;4953466;28;20035;-35
2022/04/08 08:32:05;;;;;;;10.82;1.98;;;;;;;;;;4953631;28;20047;-35
2022/04/08 08:34:31;;;;;;;7.18;1.63;;;;;;;;;;4953425;28;20035;-34
2022/04/08 08:36:59;;;;;;;3.25;1.67;;;;;;;;;;4953126;28;20398;-35
2022/04/08 08:39:28;;;;;;;5.93;1.77;;;;;;;;;;4953294;28;20035;-35
2022/04/08 08:41:57;;;;;;;4.18;1.50;;;;;;;;;;4953281;28;20086;-35
2022/04/08 08:44:23;;;;;;;9.75;1.85;;;;;;;;;;4953172;28;20055;-35
2022/04/08 08:46:49;;;;;;;5.53;1.50;;;;;;;;;;4953201;28;20043;-35
2022/04/08 08:49:18;;;;;;;6.47;1.42;;;;;;;;;;4968083;28;20039;-35
2022/04/08 08:51:45;;;;;;;4.82;1.63;;;;;;;;;;4953082;28;20079;-35
2022/04/08 08:54:10;;;;;;;2.63;1.52;;;;;;;;;;4968074;28;20034;-35
2022/04/08 08:56:36;;;;;;;5.88;1.95;;;;;;;;;;4953242;28;20098;-35
2022/04/08 08:59:01;;;;;;;3.10;1.30;;;;;;;;;;4967983;28;20031;-35
2022/04/08 09:01:27;;;;;;;5.68;1.27;;;;;;;;;;4953263;28;20031;-35
2022/04/08 09:03:52;;;;;;;8.30;1.85;;;;;;;;;;4953058;28;20035;-35
2022/04/08 09:06:18;;;;;;;8.20;1.85;;;;;;;;;;4953396;28;20023;-35
2022/04/08 09:08:53;;;;;;;2.53;1.60;;;;;;;;;;4967894;28;20034;-35
2022/04/08 09:11:23;;;;;;;9.05;1.65;;;;;;;;;;4953104;28;20051;-35
2022/04/08 09:13:49;;;;;;;6.18;1.55;;;;;;;;;;4953136;28;20049;-35
2022/04/08 09:16:23;;;;;;;6.78;1.83;;;;;;;;;;4953048;28;20545;-35
2022/04/08 09:18:49;;;;;;;10.55;2.47;;;;;;;;;;4952937;28;20039;-35
2022/04/08 09:21:21;;;;;;;5.25;2.05;;;;;;;;;;4953217;28;20118;-35
2022/04/08 09:23:47;;;;;;;4.65;2.03;;;;;;;;;;4952880;28;20501;-34
2022/04/08 09:26:14;;;;;;;2.95;1.50;;;;;;;;;;4952986;28;20051;-35
2022/04/08 09:28:43;;;;;;;7.53;1.42;;;;;;;;;;4952874;28;20438;-35
2022/04/08 09:31:21;;;;;;;6.18;1.40;;;;;;;;;;4967669;28;20031;-34
2022/04/08 09:33:52;;;;;;;3.33;2.38;;;;;;;;;;4952779;28;20031;-35
2022/04/08 09:36:29;;;;;;;9.85;1.75;;;;;;;;;;4953033;28;20035;-35
2022/04/08 09:38:54;;;;;;;10.93;3.03;;;;;;;;;;4952809;28;20038;-35
2022/04/08 09:41:20;;;;;;;8.93;2.50;;;;;;;;;;4952822;28;20023;-35
2022/04/08 09:43:45;;;;;;;7.75;1.88;;;;;;;;;;4952707;28;20055;-35
2022/04/08 09:46:15;;;;;;;15.48;2.50;;;;;;;;;;4952801;28;20058;-34
2022/04/08 09:48:41;;;;;;;5.05;1.88;;;;;;;;;;4955756;28;20030;-35
2022/04/08 09:51:09;;;;;;;7.22;2.67;;;;;;;;;;4956410;28;20114;-35
2022/04/08 09:53:40;;;;;;;8.23;2.70;;;;;;;;;;4956167;28;20394;-35
2022/04/08 09:56:12;;;;;;;6.90;2.42;;;;;;;;;;4956389;28;20501;-35
2022/04/08 09:58:37;;;;;;;8.05;1.67;;;;;;;;;;4956143;28;20470;-35
2022/04/08 10:01:03;;;;;;;8.68;2.25;;;;;;;;;;4971136;28;20027;-35
2022/04/08 10:03:29;;;;;;;13.63;2.08;;;;;;;;;;4955981;28;20035;-35
2022/04/08 10:05:55;;;;;;;6.93;2.20;;;;;;;;;;4955976;28;20041;-35
2022/04/08 10:08:20;;;;;;;3.80;2.17;;;;;;;;;;4956010;28;20368;-34
2022/04/08 10:10:51;;;;;;;4.93;2.05;;;;;;;;;;4955937;28;20027;-35
2022/04/08 10:13:52;;;;;;;8.13;2.50;;;;;;;;;;4956096;28;20243;-34
2022/04/08 10:16:18;;;;;;;3.78;2.30;;;;;;;;;;4953336;29;20138;-35
2022/04/08 10:18:45;;;;;;;9.43;2.17;;;;;;;;;;4955327;28;20038;-35
2022/04/08 10:21:10;;;;;;;7.72;2.38;;;;;;;;;;4955740;28;20035;-35
2022/04/08 10:23:37;;;;;;;5.68;2.38;;;;;;;;;;4955623;28;20070;-35
2022/04/08 10:26:05;;;;;;;4.65;1.70;;;;;;;;;;4954131;29;20039;-35
2022/04/08 10:28:37;;;;;;;10.70;3.95;;;;;;;;;;4955901;28;20026;-35
2022/04/08 10:31:14;;;;;;;11.18;3.28;;;;;;;;;;4955609;28;20059;-35
2022/04/08 10:33:45;;;;;;;6.45;2.42;;;;;;;;;;4955710;28;20123;-35
2022/04/08 10:36:10;;;;;;;6.03;1.42;;;;;;;;;;4955476;28;20043;-35
2022/04/08 10:38:37;;;;;;;9.27;2.30;;;;;;;;;;4955378;28;20022;-34
2022/04/08 10:41:07;;;;;;;7.70;1.92;;;;;;;;;;4955279;28;20070;-34
2022/04/08 10:43:41;;;;;;;5.82;1.92;;;;;;;;;;4955234;28;20158;-34
2022/04/08 10:46:07;;;;;;;5.00;2.33;;;;;;;;;;4955212;28;20046;-34
2022/04/08 10:48:33;;;;;;;4.22;2.00;;;;;;;;;;4955214;28;20019;-35
2022/04/08 10:51:12;;;;;;;2.47;1.75;;;;;;;;;;4970161;28;20039;-34
2022/04/08 10:53:40;;;;;;;2.13;1.77;;;;;;;;;;4955062;28;20039;-36
2022/04/08 10:56:12;;;;;;;6.60;2.17;;;;;;;;;;4955191;28;20023;-35
2022/04/08 10:58:49;;;;;;;3.50;1.83;;;;;;;;;;4953970;28;20769;-35
2022/04/08 11:01:16;;;;;;;16.33;2.20;;;;;;;;;;4955240;28;20450;-35
2022/04/08 11:03:46;;;;;;;3.35;2.47;;;;;;;;;;4954827;29;20131;-35
2022/04/08 11:06:12;;;;;;;6.28;1.75;;;;;;;;;;4955249;28;20037;-37
2022/04/08 11:08:38;;;;;;;3.78;1.80;;;;;;;;;;4954800;28;20012;-35
2022/04/08 11:11:03;;;;;;;3.72;2.55;;;;;;;;;;4954666;28;20031;-35
2022/04/08 11:13:29;;;;;;;6.35;1.92;;;;;;;;;;4955007;28;20029;-35
2022/04/08 11:15:55;;;;;;;7.10;1.88;;;;;;;;;;4954842;28;20031;-34
2022/04/08 11:18:20;;;;;;;3.45;1.05;;;;;;;;;;4954768;28;20107;-34
2022/04/08 11:20:49;;;;;;;7.00;1.25;;;;;;;;;;4954584;28;20027;-35
2022/04/08 11:23:24;;;;;;;2.30;1.42;;;;;;;;;;4954537;28;20462;-35
2022/04/08 11:25:50;;;;;;;7.65;1.65;;;;;;;;;;4954533;28;20501;-35
2022/04/08 11:28:16;;;;;;;3.33;1.60;;;;;;;;;;4954402;28;20067;-36
2022/04/08 11:30:42;;;;;;;3.97;1.75;;;;;;;;;;4954336;28;20027;-35
2022/04/08 11:33:15;;;;;;;3.47;1.60;;;;;;;;;;4954268;28;20046;-35
2022/04/08 11:35:40;;;;;;;9.00;1.38;;;;;;;;;;4954612;28;20038;-35
2022/04/08 11:38:12;;;;;;;1.92;1.15;;;;;;;;;;4954301;28;20023;-35
2022/04/08 11:40:37;;;;;;;4.90;1.40;;;;;;;;;;4954236;28;20039;-35
2022/04/08 11:43:03;;;;;;;11.23;3.05;;;;;;;;;;4952604;28;20074;-35
2022/04/08 11:45:29;;;;;;;4.95;2.08;;;;;;;;;;4954192;28;20110;-35
2022/04/08 11:47:55;;;;;;;1.30;1.13;;;;;;;;;;4968908;28;20094;-36
2022/04/08 11:50:25;;;;;;;7.50;1.77;;;;;;;;;;4968893;28;20042;-34
2022/04/08 11:52:51;;;;;;;3.03;1.60;;;;;;;;;;4953927;28;20043;-35
2022/04/08 11:55:21;;;;;;;2.45;1.02;;;;;;;;;;4954066;28;20114;-35
2022/04/08 11:57:47;;;;;;;7.45;1.00;;;;;;;;;;4953791;28;20031;-35
2022/04/08 12:00:19;;;;;;;4.32;1.23;;;;;;;;;;4953922;28;20489;-34
2022/04/08 12:02:47;;;;;;;2.42;2.17;;;;;;;;;;4953725;28;20118;-35
2022/04/08 12:05:17;;;;;;;6.05;1.63;;;;;;;;;;4954064;28;20027;-35
2022/04/08 12:07:44;;;;;;;1.80;1.08;;;;;;;;;;4953774;28;20059;-34
2022/04/08 12:10:10;;;;;;;1.83;1.20;;;;;;;;;;4953669;28;20019;-35
2022/04/08 12:12:36;;;;;;;4.15;0.93;;;;;;;;;;4953600;28;20053;-34
2022/04/08 12:15:08;;;;;;;5.57;2.75;;;;;;;;;;4953683;28;20019;-35
2022/04/08 12:17:38;;;;;;;1.67;1.40;;;;;;;;;;4953679;28;20035;-35
2022/04/08 12:20:05;;;;;;;5.03;0.95;;;;;;;;;;4953467;28;20023;-35
2022/04/08 12:22:32;;;;;;;11.60;2.17;;;;;;;;;;4953876;28;20054;-35
2022/04/08 12:24:58;;;;;;;1.63;1.00;;;;;;;;;;4953478;28;20055;-37
2022/04/08 12:27:24;;;;;;;2.58;1.30;;;;;;;;;;4953482;28;20043;-35
2022/04/08 12:30:08;;;;;;;4.32;1.27;;;;;;;;;;4953426;28;20034;-36
2022/04/08 12:32:38;;;;;;;6.32;1.55;;;;;;;;;;4953417;28;20046;-35
2022/04/08 12:35:06;;;;;;;7.30;1.25;;;;;;;;;;4953383;28;20035;-35
2022/04/08 12:37:32;;;;;;;1.55;1.13;;;;;;;;;;4953693;28;20035;-35
2022/04/08 12:39:58;;;;;;;3.55;0.82;;;;;;;;;;4953197;28;20011;-35
2022/04/08 12:42:23;;;;;;;5.38;1.50;;;;;;;;;;4953426;28;20035;-35
2022/04/08 12:44:49;;;;;;;4.22;1.10;;;;;;;;;;4953568;28;20433;-36
2022/04/08 12:47:15;;;;;;;6.15;1.38;;;;;;;;;;4953587;28;20699;-35
2022/04/08 12:49:41;;;;;;;3.70;1.58;;;;;;;;;;4953559;28;20027;-35
2022/04/08 12:52:07;;;;;;;6.85;1.30;;;;;;;;;;4953165;28;20466;-35
2022/04/08 12:54:32;;;;;;;4.20;1.05;;;;;;;;;;4953176;28;20028;-35
2022/04/08 12:56:58;;;;;;;5.70;0.70;;;;;;;;;;4953120;28;20031;-34
2022/04/08 12:59:23;;;;;;;5.13;1.13;;;;;;;;;;4953183;28;20046;-35
2022/04/08 13:01:49;;;;;;;5.97;1.17;;;;;;;;;;4953312;28;20027;-35
2022/04/08 13:04:15;;;;;;;3.88;1.20;;;;;;;;;;4953385;28;20035;-35
2022/04/08 13:06:41;;;;;;;8.73;1.35;;;;;;;;;;4953132;28;20105;-35
2022/04/08 13:09:06;;;;;;;5.72;1.45;;;;;;;;;;4952960;28;20028;-35
2022/04/08 13:11:35;;;;;;;3.58;0.93;;;;;;;;;;4953039;28;20071;-35
2022/04/08 13:14:00;;;;;;;0.95;0.70;;;;;;;;;;4952931;28;20012;-35
2022/04/08 13:16:26;;;;;;;1.10;0.73;;;;;;;;;;4952986;28;20040;-35
2022/04/08 13:18:51;;;;;;;1.38;0.60;;;;;;;;;;4952940;28;20019;-34
2022/04/08 13:21:18;;;;;;;2.70;1.20;;;;;;;;;;4953037;28;20035;-34
2022/04/08 13:23:44;;;;;;;4.28;1.02;;;;;;;;;;4955887;28;20020;-35
2022/04/08 13:26:09;;;;;;;3.70;1.02;;;;;;;;;;4957070;28;20031;-35
2022/04/08 13:28:35;;;;;;;5.45;1.00;;;;;;;;;;4956681;28;20348;-35
2022/04/08 13:31:00;;;;;;;5.53;1.17;;;;;;;;;;4956760;28;20059;-35
2022/04/08 13:33:25;;;;;;;0.45;0.43;;;;;;;;;;4956862;28;20482;-35
2022/04/08 13:35:53;;;;;;;4.68;0.80;;;;;;;;;;4956550;28;20404;-35
2022/04/08 13:38:21;;;;;;;1.45;0.75;;;;;;;;;;4956507;28;20020;-35
2022/04/08 13:40:47;;;;;;;4.50;0.95;;;;;;;;;;4956421;28;20123;-35
2022/04/08 13:43:12;;;;;;;0.50;0.50;;;;;;;;;;4956263;28;20126;-35
2022/04/08 13:45:38;;;;;;;6.85;1.10;;;;;;;;;;4956369;28;20046;-34
2022/04/08 13:48:06;;;;;;;2.60;1.30;;;;;;;;;;4956503;28;20022;-35
2022/04/08 13:50:31;;;;;;;3.45;0.93;;;;;;;;;;4956534;28;20083;-35
2022/04/08 13:52:57;;;;;;;4.63;1.35;;;;;;;;;;4955999;28;20382;-35
2022/04/08 13:55:22;;;;;;;3.65;1.15;;;;;;;;;;4956295;28;20042;-35
2022/04/08 13:57:48;;;;;;;7.65;1.08;;;;;;;;;;4956059;28;20031;-35
2022/04/08 14:00:13;;;;;;;1.75;0.90;;;;;;;;;;4970927;28;20454;-35
2022/04/08 14:02:39;;;;;;;2.50;0.77;;;;;;;;;;4956003;28;20027;-35
2022/04/08 14:05:06;;;;;;;1.92;1.45;;;;;;;;;;4955930;28;20031;-34
2022/04/08 14:07:32;;;;;;;2.88;1.10;;;;;;;;;;4956301;28;20058;-35
2022/04/08 14:09:58;;;;;;;6.93;1.08;;;;;;;;;;4955888;28;20023;-35
2022/04/08 14:12:24;;;;;;;1.27;0.90;;;;;;;;;;4955795;28;20386;-35
2022/04/08 14:14:49;;;;;;;7.57;1.58;;;;;;;;;;4955757;28;20122;-35
2022/04/08 14:17:15;;;;;;;3.65;0.90;;;;;;;;;;4955874;28;20109;-35
2022/04/08 14:19:44;;;;;;;5.15;1.20;;;;;;;;;;4955774;28;20023;-35
2022/04/08 14:22:10;;;;;;;3.63;0.65;;;;;;;;;;4955697;28;20485;-35
2022/04/08 14:24:35;;;;;;;12.77;1.50;;;;;;;;;;4955680;28;20035;-35
2022/04/08 14:27:01;;;;;;;6.22;0.80;;;;;;;;;;4955491;28;20130;-35
2022/04/08 14:29:26;;;;;;;5.43;1.55;;;;;;;;;;4955660;28;20031;-35
2022/04/08 14:31:52;;;;;;;4.28;0.80;;;;;;;;;;4955973;28;20039;-34
2022/04/08 14:34:18;;;;;;;2.05;0.90;;;;;;;;;;4955112;28;20110;-35
2022/04/08 14:36:43;;;;;;;5.90;1.15;;;;;;;;;;4955765;28;20023;-35
2022/04/08 14:39:09;;;;;;;6.43;0.98;;;;;;;;;;4955415;28;20086;-35